This is the latest recevied weather packets stored in our database for station/object SP1BMW-13. If no packets are shown the sender has not sent any weather packets the latest 10 day(s).
| Time | Temp. | Humidity | Pressure | Rain* | Wind** | Luminosity | Snow |
|---|---|---|---|---|---|---|---|
| 1787733073 | 21.11° C | 58% | 1022 hPa | 0 mm | 0.89 m/s, 36° | 444 W/m² | - |
| 1787733013 | 21.11° C | 60% | 1021.9 hPa | 0 mm | 0.89 m/s, 46° | 442 W/m² | - |
| 1787732953 | 21.11° C | 59% | 1021.8 hPa | 0 mm | 0.89 m/s, 97° | 440 W/m² | - |
| 1787732893 | 21.11° C | 59% | 1021.9 hPa | 0 mm | 0.89 m/s, 68° | 437 W/m² | - |
| 1787732834 | 21.11° C | 60% | 1021.9 hPa | 0 mm | 0.89 m/s, 47° | 434 W/m² | - |
| 1787732773 | 21.11° C | 59% | 1021.8 hPa | 0 mm | 0.89 m/s, 56° | 433 W/m² | - |
| 1787732713 | 21.11° C | 59% | 1021.9 hPa | 0 mm | 1.34 m/s, 26° | 431 W/m² | - |
| 1787732653 | 21.11° C | 57% | 1022 hPa | 0 mm | 2.24 m/s, 48° | 428 W/m² | - |
| 1787732594 | 21.11° C | 60% | 1021.9 hPa | 0 mm | 1.79 m/s, 38° | 424 W/m² | - |
| 1787732533 | 21.11° C | 60% | 1021.9 hPa | 0 mm | 0.45 m/s, 124° | 423 W/m² | - |
| 1787732473 | 21.11° C | 60% | 1021.9 hPa | 0 mm | 0.89 m/s, 28° | 420 W/m² | - |
| 1787732413 | 21.11° C | 59% | 1021.9 hPa | 0 mm | 0.89 m/s, 42° | 418 W/m² | - |
| 1787732353 | 21.11° C | 60% | 1021.9 hPa | 0 mm | 0.45 m/s, 28° | 415 W/m² | - |
| 1787732294 | 21.11° C | 58% | 1021.8 hPa | 0 mm | 0.89 m/s, 31° | 414 W/m² | - |
| 1787732233 | 21.11° C | 59% | 1021.9 hPa | 0 mm | 1.34 m/s, 69° | 411 W/m² | - |
| 1787732173 | 21.11° C | 59% | 1021.8 hPa | 0 mm | 2.68 m/s, 24° | 408 W/m² | - |
| 1787732113 | 21.11° C | 59% | 1021.8 hPa | 0 mm | 1.79 m/s, 37° | 405 W/m² | - |
| 1787732053 | 21.11° C | 60% | 1021.9 hPa | 0 mm | 1.34 m/s, 56° | 404 W/m² | - |
| 1787731993 | 21.11° C | 60% | 1021.8 hPa | 0 mm | 0.45 m/s, 352° | 400 W/m² | - |
| 1787731933 | 21.11° C | 60% | 1021.9 hPa | 0 mm | 1.34 m/s, 32° | 397 W/m² | - |
| 1787731873 | 21.11° C | 60% | 1021.8 hPa | 0 mm | 1.34 m/s, 47° | 394 W/m² | - |
| 1787731813 | 21.11° C | 61% | 1021.8 hPa | 0 mm | 0.45 m/s, 61° | 393 W/m² | - |
| 1787731753 | 21.11° C | 59% | 1021.6 hPa | 0 mm | 1.79 m/s, 36° | 390 W/m² | - |
| 1787731693 | 21.11° C | 59% | 1021.8 hPa | 0 mm | 0.89 m/s, 39° | 388 W/m² | - |
| 1787731633 | 21.11° C | 60% | 1021.7 hPa | 0 mm | 0.89 m/s, 63° | 385 W/m² | - |
* Rain latest hour (hover to see other rain measurements)
** Current wind speed in m/s (hover to see current wind gust speed)